This is the latest recevied weather packets stored in our database for station/object M0HPP-13. If no packets are shown the sender has not sent any weather packets the latest 10 day(s).
| Time | Temp. | Humidity | Pressure | Rain* | Wind** | Luminosity | Snow |
|---|---|---|---|---|---|---|---|
| 1787417286 | 15.56° C | 75% | 1022.6 hPa | 0 mm | - | 218 W/m² | - |
| 1787416686 | 15.56° C | 75% | 1022.5 hPa | 0 mm | - | 171 W/m² | - |
| 1787416086 | 15° C | 75% | 1022.6 hPa | 0 mm | - | 160 W/m² | - |
| 1787415486 | 15.56° C | 74% | 1022.5 hPa | 0 mm | - | 115 W/m² | - |
| 1787414886 | 16.11° C | 71% | 1022.6 hPa | 0 mm | - | 144 W/m² | - |
| 1787414286 | 16.11° C | 71% | 1022.5 hPa | 0 mm | - | 243 W/m² | - |
| 1787413686 | 16.11° C | 70% | 1022.5 hPa | 0 mm | - | 174 W/m² | - |
| 1787413086 | 16.67° C | 68% | 1022.5 hPa | 0 mm | - | 271 W/m² | - |
| 1787412486 | 16.67° C | 67% | 1022.5 hPa | 0 mm | - | 225 W/m² | - |
| 1787411286 | 16.67° C | 67% | 1022.5 hPa | 0 mm | - | 276 W/m² | - |
| 1787410686 | 16.67° C | 67% | 1022.6 hPa | 0 mm | - | 227 W/m² | - |
| 1787410086 | 16.67° C | 68% | 1022.5 hPa | 0 mm | - | 284 W/m² | - |
| 1787409486 | 16.11° C | 69% | 1022.5 hPa | 0 mm | - | 251 W/m² | - |
| 1787408886 | 16.11° C | 69% | 1022.5 hPa | 0 mm | - | 266 W/m² | - |
| 1787408286 | 16.11° C | 71% | 1022.5 hPa | 0 mm | - | 265 W/m² | - |
| 1787407686 | 16.11° C | 71% | 1022.5 hPa | 0 mm | - | 215 W/m² | - |
| 1787407086 | 16.67° C | 71% | 1022.4 hPa | 0 mm | - | 284 W/m² | - |
| 1787406486 | 16.11° C | 72% | 1022.3 hPa | 0 mm | - | 249 W/m² | - |
| 1787405886 | 16.67° C | 72% | 1022.3 hPa | 0 mm | - | 237 W/m² | - |
| 1787405286 | 17.78° C | 68% | 1022.3 hPa | 0 mm | - | 230 W/m² | - |
| 1787404686 | 17.22° C | 71% | 1022.2 hPa | 0 mm | - | 528 W/m² | - |
| 1787403486 | 16.11° C | 72% | 1022.2 hPa | 0 mm | - | 369 W/m² | - |
| 1787402886 | 16.67° C | 70% | 1022.3 hPa | 0 mm | - | 232 W/m² | - |
| 1787402286 | 17.22° C | 69% | 1022.3 hPa | 0 mm | - | 306 W/m² | - |
| 1787401686 | 16.67° C | 68% | 1022.1 hPa | 0 mm | - | 392 W/m² | - |
* Rain latest hour (hover to see other rain measurements)
** Current wind speed in m/s (hover to see current wind gust speed)